sensor_id;sensor_type;location;lat;lon;timestamp;pressure;altitude;pressure_sealevel;temperature
70415;BMP280;57837;52.064;113.478;2024-01-25T00:01:57;94864.88;;;-16.67
70415;BMP280;57837;52.064;113.478;2024-01-25T00:05:01;94863.31;;;-16.73
70415;BMP280;57837;52.064;113.478;2024-01-25T00:08:05;94868.03;;;-16.71
70415;BMP280;57837;52.064;113.478;2024-01-25T00:11:09;94870.72;;;-16.73
70415;BMP280;57837;52.064;113.478;2024-01-25T00:14:12;94875.97;;;-16.69
70415;BMP280;57837;52.064;113.478;2024-01-25T00:17:16;94876.09;;;-16.64
70415;BMP280;57837;52.064;113.478;2024-01-25T00:20:20;94890.22;;;-16.76
70415;BMP280;57837;52.064;113.478;2024-01-25T00:23:25;94891.41;;;-16.79
70415;BMP280;57837;52.064;113.478;2024-01-25T00:26:28;94898.94;;;-16.74
70415;BMP280;57837;52.064;113.478;2024-01-25T00:29:34;94896.50;;;-16.57
70415;BMP280;57837;52.064;113.478;2024-01-25T00:32:37;94908.88;;;-16.57
70415;BMP280;57837;52.064;113.478;2024-01-25T00:35:41;94903.75;;;-16.55
70415;BMP280;57837;52.064;113.478;2024-01-25T00:38:46;94912.38;;;-16.41
70415;BMP280;57837;52.064;113.478;2024-01-25T00:41:51;94905.16;;;-16.02
70415;BMP280;57837;52.064;113.478;2024-01-25T00:44:55;94915.00;;;-15.62
70415;BMP280;57837;52.064;113.478;2024-01-25T00:47:59;94905.16;;;-15.40
70415;BMP280;57837;52.064;113.478;2024-01-25T00:51:07;94907.53;;;-15.29
70415;BMP280;57837;52.064;113.478;2024-01-25T00:54:11;94898.34;;;-15.11
70415;BMP280;57837;52.064;113.478;2024-01-25T00:57:15;94902.09;;;-15.09
70415;BMP280;57837;52.064;113.478;2024-01-25T01:00:20;94904.81;;;-15.10
70415;BMP280;57837;52.064;113.478;2024-01-25T01:03:23;94904.47;;;-15.19
70415;BMP280;57837;52.064;113.478;2024-01-25T01:06:27;94915.75;;;-15.62
70415;BMP280;57837;52.064;113.478;2024-01-25T01:09:31;94917.06;;;-16.56
70415;BMP280;57837;52.064;113.478;2024-01-25T01:12:36;94921.59;;;-17.47
70415;BMP280;57837;52.064;113.478;2024-01-25T01:15:40;94915.44;;;-18.10
70415;BMP280;57837;52.064;113.478;2024-01-25T01:18:44;94922.84;;;-17.68
70415;BMP280;57837;52.064;113.478;2024-01-25T01:21:48;94914.09;;;-17.40
70415;BMP280;57837;52.064;113.478;2024-01-25T01:24:53;94920.34;;;-16.91
70415;BMP280;57837;52.064;113.478;2024-01-25T01:27:57;94924.78;;;-16.41
70415;BMP280;57837;52.064;113.478;2024-01-25T01:31:01;94922.47;;;-15.91
70415;BMP280;57837;52.064;113.478;2024-01-25T01:34:05;94924.75;;;-15.22
70415;BMP280;57837;52.064;113.478;2024-01-25T01:37:09;94920.03;;;-14.85
70415;BMP280;57837;52.064;113.478;2024-01-25T01:40:13;94922.13;;;-14.55
70415;BMP280;57837;52.064;113.478;2024-01-25T01:43:20;94924.69;;;-14.23
70415;BMP280;57837;52.064;113.478;2024-01-25T01:46:33;94932.31;;;-13.80
70415;BMP280;57837;52.064;113.478;2024-01-25T01:49:38;94932.81;;;-13.46
70415;BMP280;57837;52.064;113.478;2024-01-25T01:52:42;94943.38;;;-13.29
70415;BMP280;57837;52.064;113.478;2024-01-25T01:55:45;94934.97;;;-13.18
70415;BMP280;57837;52.064;113.478;2024-01-25T01:58:50;94951.63;;;-13.23
70415;BMP280;57837;52.064;113.478;2024-01-25T02:01:54;94952.19;;;-13.16
70415;BMP280;57837;52.064;113.478;2024-01-25T02:05:00;94949.97;;;-13.08
70415;BMP280;57837;52.064;113.478;2024-01-25T02:08:04;94956.47;;;-13.07
70415;BMP280;57837;52.064;113.478;2024-01-25T02:11:13;94949.63;;;-12.79
70415;BMP280;57837;52.064;113.478;2024-01-25T02:14:17;94944.97;;;-12.65
70415;BMP280;57837;52.064;113.478;2024-01-25T02:17:20;94946.28;;;-12.48
70415;BMP280;57837;52.064;113.478;2024-01-25T02:20:25;94943.78;;;-12.48
70415;BMP280;57837;52.064;113.478;2024-01-25T02:23:29;94938.09;;;-12.28
70415;BMP280;57837;52.064;113.478;2024-01-25T02:26:31;94943.38;;;-12.19
70415;BMP280;57837;52.064;113.478;2024-01-25T02:29:34;94947.34;;;-12.18
70415;BMP280;57837;52.064;113.478;2024-01-25T02:32:38;94951.84;;;-12.00
70415;BMP280;57837;52.064;113.478;2024-01-25T02:35:41;94953.63;;;-11.75
70415;BMP280;57837;52.064;113.478;2024-01-25T02:38:45;94966.38;;;-11.56
70415;BMP280;57837;52.064;113.478;2024-01-25T02:41:49;94971.59;;;-11.22
70415;BMP280;57837;52.064;113.478;2024-01-25T02:44:52;94969.56;;;-11.10
70415;BMP280;57837;52.064;113.478;2024-01-25T02:47:56;94975.06;;;-11.18
70415;BMP280;57837;52.064;113.478;2024-01-25T02:51:02;94975.88;;;-11.48
70415;BMP280;57837;52.064;113.478;2024-01-25T02:54:05;94977.09;;;-11.66
70415;BMP280;57837;52.064;113.478;2024-01-25T02:57:10;94987.53;;;-11.94
70415;BMP280;57837;52.064;113.478;2024-01-25T03:00:14;94991.59;;;-11.83
70415;BMP280;57837;52.064;113.478;2024-01-25T03:03:18;94989.34;;;-11.69
70415;BMP280;57837;52.064;113.478;2024-01-25T03:06:21;94985.13;;;-11.53
70415;BMP280;57837;52.064;113.478;2024-01-25T03:09:27;94983.34;;;-11.22
70415;BMP280;57837;52.064;113.478;2024-01-25T03:12:31;94985.50;;;-10.75
70415;BMP280;57837;52.064;113.478;2024-01-25T03:15:35;94985.16;;;-10.53
70415;BMP280;57837;52.064;113.478;2024-01-25T03:18:38;94973.28;;;-10.22
70415;BMP280;57837;52.064;113.478;2024-01-25T03:21:41;94975.41;;;-10.00
70415;BMP280;57837;52.064;113.478;2024-01-25T03:24:45;94961.72;;;-9.79
70415;BMP280;57837;52.064;113.478;2024-01-25T03:27:50;94958.06;;;-9.58
70415;BMP280;57837;52.064;113.478;2024-01-25T03:30:54;94963.44;;;-9.40
70415;BMP280;57837;52.064;113.478;2024-01-25T03:33:58;94971.41;;;-9.33
70415;BMP280;57837;52.064;113.478;2024-01-25T03:37:02;94967.94;;;-9.13
70415;BMP280;57837;52.064;113.478;2024-01-25T03:40:06;94972.25;;;-8.95
70415;BMP280;57837;52.064;113.478;2024-01-25T03:43:10;94965.81;;;-8.77
70415;BMP280;57837;52.064;113.478;2024-01-25T03:46:24;94971.41;;;-8.61
70415;BMP280;57837;52.064;113.478;2024-01-25T03:49:28;94970.88;;;-8.58
70415;BMP280;57837;52.064;113.478;2024-01-25T03:52:32;94966.28;;;-8.75
70415;BMP280;57837;52.064;113.478;2024-01-25T03:55:36;94965.31;;;-8.55
70415;BMP280;57837;52.064;113.478;2024-01-25T03:58:39;94974.31;;;-8.54
70415;BMP280;57837;52.064;113.478;2024-01-25T04:01:47;94964.75;;;-8.34
70415;BMP280;57837;52.064;113.478;2024-01-25T04:04:51;94964.09;;;-8.20
70415;BMP280;57837;52.064;113.478;2024-01-25T04:07:55;94962.75;;;-8.31
70415;BMP280;57837;52.064;113.478;2024-01-25T04:10:58;94965.75;;;-8.29
70415;BMP280;57837;52.064;113.478;2024-01-25T04:14:03;94962.34;;;-8.20
70415;BMP280;57837;52.064;113.478;2024-01-25T04:17:06;94956.47;;;-8.15
70415;BMP280;57837;52.064;113.478;2024-01-25T04:20:09;94961.69;;;-8.12
70415;BMP280;57837;52.064;113.478;2024-01-25T04:23:13;94953.94;;;-8.10
70415;BMP280;57837;52.064;113.478;2024-01-25T04:26:17;94962.72;;;-8.13
70415;BMP280;57837;52.064;113.478;2024-01-25T04:29:21;94953.28;;;-8.02
70415;BMP280;57837;52.064;113.478;2024-01-25T04:32:24;94959.91;;;-7.92
70415;BMP280;57837;52.064;113.478;2024-01-25T04:35:27;94955.44;;;-7.77
70415;BMP280;57837;52.064;113.478;2024-01-25T04:38:30;94959.63;;;-7.72
70415;BMP280;57837;52.064;113.478;2024-01-25T04:41:34;94953.69;;;-7.62
70415;BMP280;57837;52.064;113.478;2024-01-25T04:44:37;94943.84;;;-7.45
70415;BMP280;57837;52.064;113.478;2024-01-25T04:47:40;94948.91;;;-7.31
70415;BMP280;57837;52.064;113.478;2024-01-25T04:50:44;94947.31;;;-7.27
70415;BMP280;57837;52.064;113.478;2024-01-25T04:53:48;94948.91;;;-7.18
70415;BMP280;57837;52.064;113.478;2024-01-25T04:56:52;94948.91;;;-7.04
70415;BMP280;57837;52.064;113.478;2024-01-25T04:59:56;94949.75;;;-6.95
70415;BMP280;57837;52.064;113.478;2024-01-25T05:03:00;94949.19;;;-6.92
70415;BMP280;57837;52.064;113.478;2024-01-25T05:06:04;94949.66;;;-6.90
70415;BMP280;57837;52.064;113.478;2024-01-25T05:09:08;94953.72;;;-6.80
70415;BMP280;57837;52.064;113.478;2024-01-25T05:12:12;94950.53;;;-6.72
70415;BMP280;57837;52.064;113.478;2024-01-25T05:15:16;94940.00;;;-6.60
70415;BMP280;57837;52.064;113.478;2024-01-25T05:18:19;94939.31;;;-6.52
70415;BMP280;57837;52.064;113.478;2024-01-25T05:21:24;94935.19;;;-6.48
70415;BMP280;57837;52.064;113.478;2024-01-25T05:24:28;94932.28;;;-6.64
70415;BMP280;57837;52.064;113.478;2024-01-25T05:27:32;94927.41;;;-6.60
70415;BMP280;57837;52.064;113.478;2024-01-25T05:30:36;94927.13;;;-6.59
70415;BMP280;57837;52.064;113.478;2024-01-25T05:33:41;94932.72;;;-6.62
70415;BMP280;57837;52.064;113.478;2024-01-25T05:36:45;94924.63;;;-6.59
70415;BMP280;57837;52.064;113.478;2024-01-25T05:39:49;94923.28;;;-6.56
70415;BMP280;57837;52.064;113.478;2024-01-25T05:42:53;94931.19;;;-6.49
70415;BMP280;57837;52.064;113.478;2024-01-25T05:45:58;94921.13;;;-6.49
70415;BMP280;57837;52.064;113.478;2024-01-25T05:49:06;94925.88;;;-6.47
70415;BMP280;57837;52.064;113.478;2024-01-25T05:52:11;94925.31;;;-6.44
70415;BMP280;57837;52.064;113.478;2024-01-25T05:55:15;94921.22;;;-6.40
70415;BMP280;57837;52.064;113.478;2024-01-25T05:58:19;94918.13;;;-6.37
70415;BMP280;57837;52.064;113.478;2024-01-25T06:01:23;94914.56;;;-6.36
70415;BMP280;57837;52.064;113.478;2024-01-25T06:04:28;94915.88;;;-6.39
70415;BMP280;57837;52.064;113.478;2024-01-25T06:07:32;94918.22;;;-6.42
70415;BMP280;57837;52.064;113.478;2024-01-25T06:10:37;94920.00;;;-6.43
70415;BMP280;57837;52.064;113.478;2024-01-25T06:13:41;94912.63;;;-6.39
70415;BMP280;57837;52.064;113.478;2024-01-25T06:16:45;94905.41;;;-6.32
70415;BMP280;57837;52.064;113.478;2024-01-25T06:19:49;94903.84;;;-6.20
70415;BMP280;57837;52.064;113.478;2024-01-25T06:22:53;94906.44;;;-6.11
70415;BMP280;57837;52.064;113.478;2024-01-25T06:25:56;94908.16;;;-6.20
70415;BMP280;57837;52.064;113.478;2024-01-25T06:29:01;94903.53;;;-6.27
70415;BMP280;57837;52.064;113.478;2024-01-25T06:32:05;94905.28;;;-6.27
70415;BMP280;57837;52.064;113.478;2024-01-25T06:35:15;94905.91;;;-6.22
70415;BMP280;57837;52.064;113.478;2024-01-25T06:38:19;94901.00;;;-6.27
70415;BMP280;57837;52.064;113.478;2024-01-25T06:41:22;94906.50;;;-6.25
70415;BMP280;57837;52.064;113.478;2024-01-25T06:44:25;94902.56;;;-6.17
70415;BMP280;57837;52.064;113.478;2024-01-25T06:47:29;94898.59;;;-6.09
70415;BMP280;57837;52.064;113.478;2024-01-25T06:50:33;94902.78;;;-6.05
70415;BMP280;57837;52.064;113.478;2024-01-25T06:53:37;94906.03;;;-6.04
70415;BMP280;57837;52.064;113.478;2024-01-25T06:56:40;94906.19;;;-6.01
70415;BMP280;57837;52.064;113.478;2024-01-25T06:59:44;94911.34;;;-6.06
70415;BMP280;57837;52.064;113.478;2024-01-25T07:02:48;94903.94;;;-6.11
70415;BMP280;57837;52.064;113.478;2024-01-25T07:05:53;94903.31;;;-6.16
70415;BMP280;57837;52.064;113.478;2024-01-25T07:08:57;94906.59;;;-6.07
70415;BMP280;57837;52.064;113.478;2024-01-25T07:12:01;94903.50;;;-6.04
70415;BMP280;57837;52.064;113.478;2024-01-25T07:15:05;94909.41;;;-6.09
70415;BMP280;57837;52.064;113.478;2024-01-25T07:18:10;94910.44;;;-6.10
70415;BMP280;57837;52.064;113.478;2024-01-25T07:21:13;94910.91;;;-6.08
70415;BMP280;57837;52.064;113.478;2024-01-25T07:24:16;94915.38;;;-6.05
70415;BMP280;57837;52.064;113.478;2024-01-25T07:27:20;94917.44;;;-6.07
70415;BMP280;57837;52.064;113.478;2024-01-25T07:30:27;94920.88;;;-6.03
70415;BMP280;57837;52.064;113.478;2024-01-25T07:33:35;94919.81;;;-6.02
70415;BMP280;57837;52.064;113.478;2024-01-25T07:36:40;94922.91;;;-6.05
70415;BMP280;57837;52.064;113.478;2024-01-25T07:39:44;94928.09;;;-6.10
70415;BMP280;57837;52.064;113.478;2024-01-25T07:42:49;94927.63;;;-6.12
70415;BMP280;57837;52.064;113.478;2024-01-25T07:45:53;94927.16;;;-6.14
70415;BMP280;57837;52.064;113.478;2024-01-25T07:48:56;94933.25;;;-6.15
70415;BMP280;57837;52.064;113.478;2024-01-25T07:52:00;94935.00;;;-6.15
70415;BMP280;57837;52.064;113.478;2024-01-25T07:55:03;94933.63;;;-6.22
70415;BMP280;57837;52.064;113.478;2024-01-25T07:58:07;94942.31;;;-6.28
70415;BMP280;57837;52.064;113.478;2024-01-25T08:01:11;94937.13;;;-6.31
70415;BMP280;57837;52.064;113.478;2024-01-25T08:04:16;94945.75;;;-6.24
70415;BMP280;57837;52.064;113.478;2024-01-25T08:07:20;94938.31;;;-6.29
70415;BMP280;57837;52.064;113.478;2024-01-25T08:10:23;94934.72;;;-6.36
70415;BMP280;57837;52.064;113.478;2024-01-25T08:13:27;94936.88;;;-6.43
70415;BMP280;57837;52.064;113.478;2024-01-25T08:16:36;94936.06;;;-6.53
70415;BMP280;57837;52.064;113.478;2024-01-25T08:19:40;94932.63;;;-6.57
70415;BMP280;57837;52.064;113.478;2024-01-25T08:22:44;94936.56;;;-6.64
70415;BMP280;57837;52.064;113.478;2024-01-25T08:25:47;94934.22;;;-6.74
70415;BMP280;57837;52.064;113.478;2024-01-25T08:28:50;94934.63;;;-6.81
70415;BMP280;57837;52.064;113.478;2024-01-25T08:31:53;94937.13;;;-6.81
70415;BMP280;57837;52.064;113.478;2024-01-25T08:34:57;94936.69;;;-6.83
70415;BMP280;57837;52.064;113.478;2024-01-25T08:38:01;94938.47;;;-6.97
70415;BMP280;57837;52.064;113.478;2024-01-25T08:41:06;94939.13;;;-7.05
70415;BMP280;57837;52.064;113.478;2024-01-25T08:44:28;94939.31;;;-7.16
70415;BMP280;57837;52.064;113.478;2024-01-25T08:47:47;94942.84;;;-7.30
70415;BMP280;57837;52.064;113.478;2024-01-25T08:50:52;94942.56;;;-7.43
70415;BMP280;57837;52.064;113.478;2024-01-25T08:53:57;94946.47;;;-7.50
70415;BMP280;57837;52.064;113.478;2024-01-25T08:57:01;94946.16;;;-7.62
70415;BMP280;57837;52.064;113.478;2024-01-25T09:00:04;94954.41;;;-7.76
70415;BMP280;57837;52.064;113.478;2024-01-25T09:03:14;94949.97;;;-8.16
70415;BMP280;57837;52.064;113.478;2024-01-25T09:06:17;94944.97;;;-8.54
70415;BMP280;57837;52.064;113.478;2024-01-25T09:09:20;94956.22;;;-8.75
70415;BMP280;57837;52.064;113.478;2024-01-25T09:12:23;94954.44;;;-8.94
70415;BMP280;57837;52.064;113.478;2024-01-25T09:15:26;94950.16;;;-9.12
70415;BMP280;57837;52.064;113.478;2024-01-25T09:18:30;94959.81;;;-9.29
70415;BMP280;57837;52.064;113.478;2024-01-25T09:21:33;94963.28;;;-9.49
70415;BMP280;57837;52.064;113.478;2024-01-25T09:24:38;94966.66;;;-9.69
70415;BMP280;57837;52.064;113.478;2024-01-25T09:27:43;94963.22;;;-9.78
70415;BMP280;57837;52.064;113.478;2024-01-25T09:30:47;94968.28;;;-9.83
70415;BMP280;57837;52.064;113.478;2024-01-25T09:33:51;94971.63;;;-9.93
70415;BMP280;57837;52.064;113.478;2024-01-25T09:36:55;94961.88;;;-9.99
70415;BMP280;57837;52.064;113.478;2024-01-25T09:39:58;94957.72;;;-10.14
70415;BMP280;57837;52.064;113.478;2024-01-25T09:43:07;94964.28;;;-10.23
70415;BMP280;57837;52.064;113.478;2024-01-25T09:46:13;94970.28;;;-10.29
70415;BMP280;57837;52.064;113.478;2024-01-25T09:49:19;94976.66;;;-10.47
70415;BMP280;57837;52.064;113.478;2024-01-25T09:52:24;94984.19;;;-10.52
70415;BMP280;57837;52.064;113.478;2024-01-25T09:55:29;94978.44;;;-10.58
70415;BMP280;57837;52.064;113.478;2024-01-25T10:01:46;94986.25;;;-10.69
70415;BMP280;57837;52.064;113.478;2024-01-25T10:04:52;94992.28;;;-10.86
70415;BMP280;57837;52.064;113.478;2024-01-25T10:07:57;94986.28;;;-10.95
70415;BMP280;57837;52.064;113.478;2024-01-25T10:11:06;94991.81;;;-11.08
70415;BMP280;57837;52.064;113.478;2024-01-25T10:14:11;94997.06;;;-11.10
70415;BMP280;57837;52.064;113.478;2024-01-25T10:17:16;94996.06;;;-11.14
70415;BMP280;57837;52.064;113.478;2024-01-25T10:20:19;95001.84;;;-11.23
70415;BMP280;57837;52.064;113.478;2024-01-25T10:23:28;95002.59;;;-11.28
70415;BMP280;57837;52.064;113.478;2024-01-25T10:26:34;95000.81;;;-11.43
70415;BMP280;57837;52.064;113.478;2024-01-25T10:29:39;95007.09;;;-11.50
70415;BMP280;57837;52.064;113.478;2024-01-25T10:32:43;95007.81;;;-11.50
70415;BMP280;57837;52.064;113.478;2024-01-25T10:35:47;95017.53;;;-11.48
70415;BMP280;57837;52.064;113.478;2024-01-25T10:38:54;95007.31;;;-11.57
70415;BMP280;57837;52.064;113.478;2024-01-25T10:41:59;95010.06;;;-11.69
70415;BMP280;57837;52.064;113.478;2024-01-25T10:45:04;95010.78;;;-11.78
70415;BMP280;57837;52.064;113.478;2024-01-25T10:48:08;95010.28;;;-11.85
70415;BMP280;57837;52.064;113.478;2024-01-25T10:51:11;95009.28;;;-11.84
70415;BMP280;57837;52.064;113.478;2024-01-25T10:54:18;95010.53;;;-11.92
70415;BMP280;57837;52.064;113.478;2024-01-25T10:57:39;95016.50;;;-11.98
70415;BMP280;57837;52.064;113.478;2024-01-25T11:00:56;95020.22;;;-11.96
70415;BMP280;57837;52.064;113.478;2024-01-25T11:04:01;95018.44;;;-12.00
70415;BMP280;57837;52.064;113.478;2024-01-25T11:07:08;95019.19;;;-12.05
70415;BMP280;57837;52.064;113.478;2024-01-25T11:10:17;95028.94;;;-12.08
70415;BMP280;57837;52.064;113.478;2024-01-25T11:13:26;95026.16;;;-12.17
70415;BMP280;57837;52.064;113.478;2024-01-25T11:16:31;95024.59;;;-12.28
70415;BMP280;57837;52.064;113.478;2024-01-25T11:19:38;95034.09;;;-12.25
70415;BMP280;57837;52.064;113.478;2024-01-25T11:22:45;95032.59;;;-12.26
70415;BMP280;57837;52.064;113.478;2024-01-25T11:25:49;95027.56;;;-12.36
70415;BMP280;57837;52.064;113.478;2024-01-25T11:28:53;95031.03;;;-12.48
70415;BMP280;57837;52.064;113.478;2024-01-25T11:31:58;95040.41;;;-12.60
70415;BMP280;57837;52.064;113.478;2024-01-25T11:35:02;95036.69;;;-12.62
70415;BMP280;57837;52.064;113.478;2024-01-25T11:38:08;95038.91;;;-12.66
70415;BMP280;57837;52.064;113.478;2024-01-25T11:41:12;95044.16;;;-12.62
70415;BMP280;57837;52.064;113.478;2024-01-25T11:44:15;95040.13;;;-12.68
70415;BMP280;57837;52.064;113.478;2024-01-25T11:47:18;95032.78;;;-12.85
70415;BMP280;57837;52.064;113.478;2024-01-25T11:50:23;95046.97;;;-12.91
70415;BMP280;57837;52.064;113.478;2024-01-25T11:53:27;95044.97;;;-12.94
70415;BMP280;57837;52.064;113.478;2024-01-25T11:56:32;95045.41;;;-13.02
70415;BMP280;57837;52.064;113.478;2024-01-25T11:59:37;95056.56;;;-13.05
70415;BMP280;57837;52.064;113.478;2024-01-25T12:02:42;95052.53;;;-13.16
70415;BMP280;57837;52.064;113.478;2024-01-25T12:05:46;95050.22;;;-13.22
70415;BMP280;57837;52.064;113.478;2024-01-25T12:08:50;95049.66;;;-13.29
70415;BMP280;57837;52.064;113.478;2024-01-25T12:11:54;95046.22;;;-13.23
70415;BMP280;57837;52.064;113.478;2024-01-25T12:15:01;95047.44;;;-13.26
70415;BMP280;57837;52.064;113.478;2024-01-25T12:18:07;95058.84;;;-13.30
70415;BMP280;57837;52.064;113.478;2024-01-25T12:21:13;95058.09;;;-13.31
70415;BMP280;57837;52.064;113.478;2024-01-25T12:24:17;95057.59;;;-13.33
70415;BMP280;57837;52.064;113.478;2024-01-25T12:27:23;95063.56;;;-13.34
70415;BMP280;57837;52.064;113.478;2024-01-25T12:30:27;95059.03;;;-13.37
70415;BMP280;57837;52.064;113.478;2024-01-25T12:33:31;95069.78;;;-13.36
70415;BMP280;57837;52.064;113.478;2024-01-25T12:36:35;95056.34;;;-13.35
70415;BMP280;57837;52.064;113.478;2024-01-25T12:39:39;95066.28;;;-13.35
70415;BMP280;57837;52.064;113.478;2024-01-25T12:42:43;95062.44;;;-13.48
70415;BMP280;57837;52.064;113.478;2024-01-25T12:45:46;95061.81;;;-13.60
70415;BMP280;57837;52.064;113.478;2024-01-25T12:48:50;95068.22;;;-13.64
70415;BMP280;57837;52.064;113.478;2024-01-25T12:52:00;95067.38;;;-13.75
70415;BMP280;57837;52.064;113.478;2024-01-25T12:55:04;95063.13;;;-13.79
70415;BMP280;57837;52.064;113.478;2024-01-25T12:58:08;95069.13;;;-13.75
70415;BMP280;57837;52.064;113.478;2024-01-25T13:01:13;95065.03;;;-13.87
70415;BMP280;57837;52.064;113.478;2024-01-25T13:04:18;95065.91;;;-13.98
70415;BMP280;57837;52.064;113.478;2024-01-25T13:07:23;95067.16;;;-13.95
70415;BMP280;57837;52.064;113.478;2024-01-25T13:10:26;95067.66;;;-13.98
70415;BMP280;57837;52.064;113.478;2024-01-25T13:13:29;95073.81;;;-14.01
70415;BMP280;57837;52.064;113.478;2024-01-25T13:16:33;95073.25;;;-14.08
70415;BMP280;57837;52.064;113.478;2024-01-25T13:19:36;95065.72;;;-14.13
70415;BMP280;57837;52.064;113.478;2024-01-25T13:22:40;95064.84;;;-14.24
70415;BMP280;57837;52.064;113.478;2024-01-25T13:25:43;95067.72;;;-14.32
70415;BMP280;57837;52.064;113.478;2024-01-25T13:28:46;95073.31;;;-14.41
70415;BMP280;57837;52.064;113.478;2024-01-25T13:31:51;95073.84;;;-14.39
70415;BMP280;57837;52.064;113.478;2024-01-25T13:34:55;95066.06;;;-14.43
70415;BMP280;57837;52.064;113.478;2024-01-25T13:37:59;95068.50;;;-14.48
70415;BMP280;57837;52.064;113.478;2024-01-25T13:41:05;95077.56;;;-14.59
70415;BMP280;57837;52.064;113.478;2024-01-25T13:44:09;95078.00;;;-14.62
70415;BMP280;57837;52.064;113.478;2024-01-25T13:47:12;95076.13;;;-14.72
70415;BMP280;57837;52.064;113.478;2024-01-25T13:50:16;95073.03;;;-14.79
70415;BMP280;57837;52.064;113.478;2024-01-25T13:53:19;95066.97;;;-14.88
70415;BMP280;57837;52.064;113.478;2024-01-25T13:56:22;95078.06;;;-14.90
70415;BMP280;57837;52.064;113.478;2024-01-25T13:59:29;95081.69;;;-14.98
70415;BMP280;57837;52.064;113.478;2024-01-25T14:02:34;95085.22;;;-15.11
70415;BMP280;57837;52.064;113.478;2024-01-25T14:05:40;95083.31;;;-15.20
70415;BMP280;57837;52.064;113.478;2024-01-25T14:08:44;95083.84;;;-15.35
70415;BMP280;57837;52.064;113.478;2024-01-25T14:11:47;95085.91;;;-15.44
70415;BMP280;57837;52.064;113.478;2024-01-25T14:14:54;95093.25;;;-15.49
70415;BMP280;57837;52.064;113.478;2024-01-25T14:17:59;95083.88;;;-15.59
70415;BMP280;57837;52.064;113.478;2024-01-25T14:21:02;95092.03;;;-15.63
70415;BMP280;57837;52.064;113.478;2024-01-25T14:24:07;95094.31;;;-15.85
70415;BMP280;57837;52.064;113.478;2024-01-25T14:27:12;95085.16;;;-15.85
70415;BMP280;57837;52.064;113.478;2024-01-25T14:30:17;95077.72;;;-15.85
70415;BMP280;57837;52.064;113.478;2024-01-25T14:33:22;95084.50;;;-15.92
70415;BMP280;57837;52.064;113.478;2024-01-25T14:36:26;95091.09;;;-15.97
70415;BMP280;57837;52.064;113.478;2024-01-25T14:39:30;95097.03;;;-15.98
70415;BMP280;57837;52.064;113.478;2024-01-25T14:42:33;95096.28;;;-15.99
70415;BMP280;57837;52.064;113.478;2024-01-25T14:50:05;95102.63;;;-16.03
70415;BMP280;57837;52.064;113.478;2024-01-25T14:53:09;95097.88;;;-16.04
70415;BMP280;57837;52.064;113.478;2024-01-25T14:56:12;95099.31;;;-16.20
70415;BMP280;57837;52.064;113.478;2024-01-25T14:59:16;95104.47;;;-16.22
70415;BMP280;57837;52.064;113.478;2024-01-25T15:02:20;95096.81;;;-16.32
70415;BMP280;57837;52.064;113.478;2024-01-25T15:05:24;95093.47;;;-16.38
70415;BMP280;57837;52.064;113.478;2024-01-25T15:08:28;95091.97;;;-16.39
70415;BMP280;57837;52.064;113.478;2024-01-25T15:11:32;95094.13;;;-16.54
70415;BMP280;57837;52.064;113.478;2024-01-25T15:14:36;95092.72;;;-16.38
70415;BMP280;57837;52.064;113.478;2024-01-25T15:17:39;95098.44;;;-16.38
70415;BMP280;57837;52.064;113.478;2024-01-25T15:20:43;95090.34;;;-16.56
70415;BMP280;57837;52.064;113.478;2024-01-25T15:23:47;95092.28;;;-16.70
70415;BMP280;57837;52.064;113.478;2024-01-25T15:26:50;95091.50;;;-16.82
70415;BMP280;57837;52.064;113.478;2024-01-25T15:29:54;95107.31;;;-16.83
70415;BMP280;57837;52.064;113.478;2024-01-25T15:32:57;95103.75;;;-16.99
70415;BMP280;57837;52.064;113.478;2024-01-25T15:36:00;95096.81;;;-16.97
70415;BMP280;57837;52.064;113.478;2024-01-25T15:39:04;95093.91;;;-17.17
70415;BMP280;57837;52.064;113.478;2024-01-25T15:42:08;95100.59;;;-17.06
70415;BMP280;57837;52.064;113.478;2024-01-25T15:45:12;95097.91;;;-17.05
70415;BMP280;57837;52.064;113.478;2024-01-25T15:48:16;95085.38;;;-17.22
70415;BMP280;57837;52.064;113.478;2024-01-25T15:51:20;95085.69;;;-17.18
70415;BMP280;57837;52.064;113.478;2024-01-25T15:54:25;95081.38;;;-17.23
70415;BMP280;57837;52.064;113.478;2024-01-25T15:57:29;95080.09;;;-17.25
70415;BMP280;57837;52.064;113.478;2024-01-25T16:00:34;95077.00;;;-17.21
70415;BMP280;57837;52.064;113.478;2024-01-25T16:03:38;95081.34;;;-17.34
70415;BMP280;57837;52.064;113.478;2024-01-25T16:06:42;95088.84;;;-17.41
70415;BMP280;57837;52.064;113.478;2024-01-25T16:09:46;95083.78;;;-17.46
70415;BMP280;57837;52.064;113.478;2024-01-25T16:12:49;95080.75;;;-17.48
70415;BMP280;57837;52.064;113.478;2024-01-25T16:15:53;95072.38;;;-17.47
70415;BMP280;57837;52.064;113.478;2024-01-25T16:18:57;95066.25;;;-17.45
70415;BMP280;57837;52.064;113.478;2024-01-25T16:22:04;95068.97;;;-17.64
70415;BMP280;57837;52.064;113.478;2024-01-25T16:25:09;95067.06;;;-17.81
70415;BMP280;57837;52.064;113.478;2024-01-25T16:28:13;95060.78;;;-18.02
70415;BMP280;57837;52.064;113.478;2024-01-25T16:31:17;95054.91;;;-18.01
70415;BMP280;57837;52.064;113.478;2024-01-25T16:34:21;95057.53;;;-17.95
70415;BMP280;57837;52.064;113.478;2024-01-25T16:37:25;95062.66;;;-17.97
70415;BMP280;57837;52.064;113.478;2024-01-25T16:40:29;95059.25;;;-17.96
70415;BMP280;57837;52.064;113.478;2024-01-25T16:43:32;95060.47;;;-18.05
70415;BMP280;57837;52.064;113.478;2024-01-25T16:46:35;95066.28;;;-18.18
70415;BMP280;57837;52.064;113.478;2024-01-25T16:49:39;95065.41;;;-18.23
70415;BMP280;57837;52.064;113.478;2024-01-25T16:52:42;95063.16;;;-18.32
70415;BMP280;57837;52.064;113.478;2024-01-25T16:55:46;95056.13;;;-18.28
70415;BMP280;57837;52.064;113.478;2024-01-25T16:58:52;95061.94;;;-18.41
70415;BMP280;57837;52.064;113.478;2024-01-25T17:01:56;95062.38;;;-18.50
70415;BMP280;57837;52.064;113.478;2024-01-25T17:05:00;95072.06;;;-18.49
70415;BMP280;57837;52.064;113.478;2024-01-25T17:08:04;95059.34;;;-18.28
70415;BMP280;57837;52.064;113.478;2024-01-25T17:11:07;95044.75;;;-17.92